Time;durP1;ratioP1;P1;durP2;ratioP2;P2;SDS_P1;SDS_P2;PMS_P1;PMS_P2;Temp;Humidity;BMP_temperature;BMP_pressure;BME280_temperature;BME280_humidity;BME280_pressure;Samples;Min_cycle;Max_cycle;Signal;HPM_P1;HPM_P2
2021/12/09 00:00:11;;;;;;;8.27;6.00;;;;;;;;;;5014050;28;20218;-44
2021/12/09 00:02:38;;;;;;;6.47;5.30;;;;;;;;;;5014154;28;20226;-44
2021/12/09 00:05:05;;;;;;;7.00;6.03;;;;;;;;;;5036545;28;20551;-44
2021/12/09 00:07:31;;;;;;;6.90;5.72;;;;;;;;;;5034691;28;20278;-44
2021/12/09 00:09:57;;;;;;;6.40;5.53;;;;;;;;;;5021151;28;20245;-44
2021/12/09 00:12:24;;;;;;;6.68;5.78;;;;;;;;;;5025725;28;20172;-44
2021/12/09 00:14:50;;;;;;;6.55;5.85;;;;;;;;;;5020034;28;20851;-45
2021/12/09 00:17:16;;;;;;;6.78;5.80;;;;;;;;;;5013768;28;20256;-44
2021/12/09 00:19:42;;;;;;;6.70;5.68;;;;;;;;;;5014030;28;20188;-44
2021/12/09 00:22:11;;;;;;;8.30;5.88;;;;;;;;;;5013842;28;20172;-44
2021/12/09 00:24:37;;;;;;;6.60;5.70;;;;;;;;;;5013606;28;20168;-44
2021/12/09 00:27:03;;;;;;;6.40;5.45;;;;;;;;;;5013825;28;20200;-45
2021/12/09 00:29:29;;;;;;;7.00;5.75;;;;;;;;;;5014071;28;20180;-44
2021/12/09 00:31:56;;;;;;;7.05;5.95;;;;;;;;;;5029814;28;20271;-44
2021/12/09 00:34:30;;;;;;;7.65;6.07;;;;;;;;;;5017932;28;20184;-44
2021/12/09 00:37:00;;;;;;;7.38;6.38;;;;;;;;;;5013728;28;20196;-44
2021/12/09 00:39:26;;;;;;;6.43;5.50;;;;;;;;;;5019322;28;20183;-44
2021/12/09 00:41:52;;;;;;;7.82;5.38;;;;;;;;;;5029708;28;20554;-44
2021/12/09 00:44:18;;;;;;;7.43;6.28;;;;;;;;;;5029318;28;20183;-44
2021/12/09 00:46:45;;;;;;;7.10;5.82;;;;;;;;;;5030961;28;20204;-45
2021/12/09 00:49:11;;;;;;;6.93;5.60;;;;;;;;;;5021138;28;20501;-44
2021/12/09 00:51:37;;;;;;;6.75;5.60;;;;;;;;;;5031824;28;20186;-44
2021/12/09 00:54:03;;;;;;;7.68;6.05;;;;;;;;;;5013194;28;20548;-44
2021/12/09 00:56:29;;;;;;;6.70;5.70;;;;;;;;;;5013808;28;20503;-44
2021/12/09 00:58:55;;;;;;;8.00;5.90;;;;;;;;;;5013813;28;20421;-44
2021/12/09 01:01:22;;;;;;;7.53;6.07;;;;;;;;;;5013400;28;20474;-44
2021/12/09 01:03:48;;;;;;;6.70;5.60;;;;;;;;;;5020081;28;20180;-44
2021/12/09 01:06:15;;;;;;;6.95;6.03;;;;;;;;;;5017766;28;20618;-45
2021/12/09 01:08:42;;;;;;;7.43;6.07;;;;;;;;;;5025338;28;20210;-45
2021/12/09 01:11:09;;;;;;;6.20;5.57;;;;;;;;;;5037167;28;20195;-45
2021/12/09 01:13:35;;;;;;;7.63;5.78;;;;;;;;;;5019827;28;20211;-45
2021/12/09 01:16:01;;;;;;;8.38;6.00;;;;;;;;;;5047077;28;20186;-45
2021/12/09 01:18:27;;;;;;;7.43;5.90;;;;;;;;;;5035871;28;20164;-45
2021/12/09 01:20:53;;;;;;;7.90;5.55;;;;;;;;;;5035445;28;20176;-45
2021/12/09 01:23:19;;;;;;;6.47;5.53;;;;;;;;;;5024680;28;20229;-45
2021/12/09 01:25:47;;;;;;;6.20;5.47;;;;;;;;;;5016504;28;20568;-44
2021/12/09 01:28:21;;;;;;;9.02;6.38;;;;;;;;;;5016785;28;20196;-44
2021/12/09 01:30:49;;;;;;;7.85;5.75;;;;;;;;;;5016866;28;20247;-44
2021/12/09 01:33:15;;;;;;;6.90;5.88;;;;;;;;;;5016705;28;20259;-44
2021/12/09 01:35:47;;;;;;;6.68;5.57;;;;;;;;;;5017706;28;20268;-44
2021/12/09 01:38:14;;;;;;;6.90;5.95;;;;;;;;;;5032764;28;20216;-45
2021/12/09 01:40:41;;;;;;;6.28;5.53;;;;;;;;;;5021732;28;20455;-45
2021/12/09 01:43:07;;;;;;;6.50;5.78;;;;;;;;;;5020484;28;20227;-45
2021/12/09 01:45:33;;;;;;;7.43;6.10;;;;;;;;;;5034744;28;20519;-44
2021/12/09 01:47:59;;;;;;;7.63;6.00;;;;;;;;;;5035684;28;20239;-44
2021/12/09 01:50:26;;;;;;;7.22;5.97;;;;;;;;;;5036372;28;20209;-44
2021/12/09 01:52:52;;;;;;;8.18;5.90;;;;;;;;;;5032242;28;20229;-44
2021/12/09 01:55:19;;;;;;;7.97;6.05;;;;;;;;;;5035504;28;20164;-44
2021/12/09 01:57:47;;;;;;;11.02;6.07;;;;;;;;;;5029422;28;20235;-44
2021/12/09 02:00:14;;;;;;;7.60;6.43;;;;;;;;;;5016554;28;20238;-44
2021/12/09 02:02:41;;;;;;;7.18;5.60;;;;;;;;;;5017212;28;20271;-44
2021/12/09 02:05:08;;;;;;;6.75;5.80;;;;;;;;;;5025367;28;20255;-44
2021/12/09 02:07:34;;;;;;;7.72;5.75;;;;;;;;;;5016030;28;20239;-44
2021/12/09 02:10:00;;;;;;;6.75;5.70;;;;;;;;;;5017534;28;20223;-44
2021/12/09 02:12:26;;;;;;;6.50;5.45;;;;;;;;;;5016179;28;20898;-44
2021/12/09 02:14:54;;;;;;;7.72;6.10;;;;;;;;;;5019490;28;20184;-44
2021/12/09 02:17:20;;;;;;;7.05;6.00;;;;;;;;;;5016424;28;20279;-44
2021/12/09 02:19:46;;;;;;;7.32;6.53;;;;;;;;;;5015767;28;20258;-44
2021/12/09 02:22:14;;;;;;;7.10;5.72;;;;;;;;;;5020315;28;20172;-45
2021/12/09 02:24:40;;;;;;;6.97;5.68;;;;;;;;;;5025999;28;20183;-45
2021/12/09 02:27:06;;;;;;;7.05;5.72;;;;;;;;;;5042482;28;20268;-44
2021/12/09 02:29:32;;;;;;;7.35;6.00;;;;;;;;;;5033458;28;20212;-45
2021/12/09 02:31:59;;;;;;;6.47;5.75;;;;;;;;;;5018702;28;20222;-44
2021/12/09 02:34:25;;;;;;;7.13;6.03;;;;;;;;;;5015401;28;20156;-44
2021/12/09 02:36:51;;;;;;;8.18;6.10;;;;;;;;;;5015736;28;20187;-44
2021/12/09 02:39:17;;;;;;;6.78;5.90;;;;;;;;;;5016204;28;20239;-44
2021/12/09 02:41:45;;;;;;;7.32;6.05;;;;;;;;;;5031674;28;20577;-44
2021/12/09 02:44:12;;;;;;;7.10;5.75;;;;;;;;;;5027277;28;20198;-44
2021/12/09 02:46:39;;;;;;;6.43;5.68;;;;;;;;;;5035017;28;20191;-44
2021/12/09 02:49:06;;;;;;;7.05;5.75;;;;;;;;;;5019711;28;20180;-44
2021/12/09 02:51:32;;;;;;;6.88;6.15;;;;;;;;;;5015687;28;20164;-44
2021/12/09 02:53:58;;;;;;;6.15;5.53;;;;;;;;;;5014666;28;20190;-44
2021/12/09 02:56:24;;;;;;;7.05;6.10;;;;;;;;;;5015267;28;20256;-44
2021/12/09 02:58:50;;;;;;;6.95;5.88;;;;;;;;;;5030924;28;20190;-44
2021/12/09 03:01:19;;;;;;;7.30;6.55;;;;;;;;;;5033201;28;20483;-44
2021/12/09 03:03:50;;;;;;;8.00;5.85;;;;;;;;;;5030203;28;20266;-44
2021/12/09 03:06:18;;;;;;;7.25;6.00;;;;;;;;;;5021017;28;20226;-44
2021/12/09 03:08:44;;;;;;;7.93;6.25;;;;;;;;;;5017935;28;20172;-44
2021/12/09 03:11:12;;;;;;;7.18;6.13;;;;;;;;;;5015072;28;20168;-44
2021/12/09 03:13:38;;;;;;;6.90;6.20;;;;;;;;;;5014618;28;20212;-44
2021/12/09 03:16:05;;;;;;;8.27;6.57;;;;;;;;;;5014791;28;20184;-44
2021/12/09 03:18:31;;;;;;;7.40;6.53;;;;;;;;;;5014997;28;20234;-44
2021/12/09 03:20:57;;;;;;;7.47;6.07;;;;;;;;;;5022461;28;20664;-44
2021/12/09 03:23:25;;;;;;;7.97;6.40;;;;;;;;;;5027839;28;20188;-44
2021/12/09 03:25:51;;;;;;;7.90;6.20;;;;;;;;;;5026883;28;20215;-44
2021/12/09 03:28:18;;;;;;;6.65;5.93;;;;;;;;;;5014421;28;20219;-44
2021/12/09 03:30:44;;;;;;;7.82;6.50;;;;;;;;;;5014583;28;20447;-44
2021/12/09 03:33:10;;;;;;;7.43;5.82;;;;;;;;;;5015022;28;20185;-44
2021/12/09 03:35:36;;;;;;;7.32;6.07;;;;;;;;;;5021286;28;20259;-44
2021/12/09 03:38:03;;;;;;;7.45;6.32;;;;;;;;;;5050926;28;20194;-44
2021/12/09 03:40:29;;;;;;;7.15;6.32;;;;;;;;;;5019661;28;20464;-44
2021/12/09 03:42:55;;;;;;;7.70;6.20;;;;;;;;;;5023250;28;20850;-44
2021/12/09 03:45:21;;;;;;;7.68;6.43;;;;;;;;;;5032980;28;20175;-44
2021/12/09 03:47:47;;;;;;;8.07;5.97;;;;;;;;;;5014368;28;20212;-44
2021/12/09 03:50:13;;;;;;;6.95;6.20;;;;;;;;;;5014363;28;20173;-44
2021/12/09 03:52:40;;;;;;;7.78;6.45;;;;;;;;;;5013754;28;20276;-44
2021/12/09 03:55:06;;;;;;;6.72;6.00;;;;;;;;;;5014036;28;20168;-44
2021/12/09 03:57:33;;;;;;;7.63;6.10;;;;;;;;;;5014974;28;20188;-44
2021/12/09 03:59:59;;;;;;;8.02;6.40;;;;;;;;;;5014271;28;20251;-44
2021/12/09 04:02:25;;;;;;;7.30;6.50;;;;;;;;;;5016382;28;20283;-44
2021/12/09 04:04:51;;;;;;;7.70;6.45;;;;;;;;;;5027038;28;20180;-44
2021/12/09 04:07:17;;;;;;;6.97;5.78;;;;;;;;;;5017494;28;20266;-44
2021/12/09 04:09:44;;;;;;;7.00;6.30;;;;;;;;;;5013737;28;20219;-44
2021/12/09 04:12:11;;;;;;;8.73;6.72;;;;;;;;;;5014025;28;20219;-45
2021/12/09 04:14:37;;;;;;;7.65;6.53;;;;;;;;;;5014162;28;20176;-44
2021/12/09 04:17:03;;;;;;;7.57;6.22;;;;;;;;;;5013866;28;20259;-44
2021/12/09 04:19:29;;;;;;;7.07;6.07;;;;;;;;;;5013939;28;20172;-44
2021/12/09 04:21:55;;;;;;;8.10;6.70;;;;;;;;;;5015634;28;20187;-44
2021/12/09 04:24:22;;;;;;;6.88;5.82;;;;;;;;;;5032404;28;20482;-44
2021/12/09 04:26:50;;;;;;;6.68;5.80;;;;;;;;;;5013660;28;20200;-45
2021/12/09 04:29:16;;;;;;;7.80;6.25;;;;;;;;;;5013798;28;20207;-45
2021/12/09 04:31:43;;;;;;;6.38;5.70;;;;;;;;;;5014137;28;20193;-45
2021/12/09 04:34:09;;;;;;;6.82;5.90;;;;;;;;;;5024416;28;20259;-45
2021/12/09 04:36:37;;;;;;;7.75;5.90;;;;;;;;;;5022652;28;20567;-44
2021/12/09 04:39:04;;;;;;;7.05;6.35;;;;;;;;;;5019183;28;20427;-44
2021/12/09 04:41:30;;;;;;;6.78;5.70;;;;;;;;;;5037799;28;20188;-44
2021/12/09 04:43:56;;;;;;;6.90;5.68;;;;;;;;;;5026452;28;20282;-44
2021/12/09 04:46:22;;;;;;;7.45;6.05;;;;;;;;;;5026065;28;20187;-44
2021/12/09 04:48:48;;;;;;;7.60;5.97;;;;;;;;;;5036672;28;20187;-44
2021/12/09 04:51:14;;;;;;;6.95;5.80;;;;;;;;;;5037425;28;20164;-44
2021/12/09 04:53:40;;;;;;;6.38;5.40;;;;;;;;;;5018975;28;20187;-44
2021/12/09 04:56:06;;;;;;;7.50;5.70;;;;;;;;;;5017598;28;20189;-44
2021/12/09 04:58:33;;;;;;;7.32;5.93;;;;;;;;;;5017444;28;20187;-44
2021/12/09 05:01:00;;;;;;;6.90;5.78;;;;;;;;;;5017518;28;20500;-44
2021/12/09 05:03:26;;;;;;;6.45;5.57;;;;;;;;;;5017496;28;20235;-44
2021/12/09 05:05:52;;;;;;;8.05;6.60;;;;;;;;;;5020958;28;20192;-44
2021/12/09 05:08:20;;;;;;;8.25;6.40;;;;;;;;;;5036969;28;20203;-44
2021/12/09 05:13:30;;;;;;;6.82;5.90;;;;;;;;;;5029323;28;20602;-45
2021/12/09 05:15:57;;;;;;;6.38;5.60;;;;;;;;;;5031655;28;20173;-44
2021/12/09 05:18:24;;;;;;;6.50;5.72;;;;;;;;;;5017440;28;20181;-44
2021/12/09 05:20:50;;;;;;;6.55;5.72;;;;;;;;;;5017671;28;20180;-44
2021/12/09 05:23:18;;;;;;;6.68;5.97;;;;;;;;;;5025554;28;20237;-44
2021/12/09 05:25:44;;;;;;;6.35;5.75;;;;;;;;;;5031492;28;20191;-44
2021/12/09 05:28:11;;;;;;;6.82;5.82;;;;;;;;;;5032709;28;20246;-44
2021/12/09 05:32:07;;;;;;;6.75;5.60;;;;;;;;;;5022889;28;20174;-44
2021/12/09 05:33:30;;;;;;;7.40;6.20;;;;;;;;;;5031375;28;20187;-44
2021/12/09 05:35:56;;;;;;;7.00;5.70;;;;;;;;;;5032300;28;20247;-44
2021/12/09 05:38:23;;;;;;;6.68;5.93;;;;;;;;;;5024753;28;20184;-44
2021/12/09 05:40:49;;;;;;;7.47;5.38;;;;;;;;;;5019460;28;20837;-44
2021/12/09 05:43:16;;;;;;;7.50;6.55;;;;;;;;;;5021866;28;20228;-44
2021/12/09 05:45:42;;;;;;;7.57;6.28;;;;;;;;;;5034053;28;20184;-44
2021/12/09 05:48:10;;;;;;;6.47;5.75;;;;;;;;;;5046791;28;20214;-44
2021/12/09 05:50:36;;;;;;;6.63;5.50;;;;;;;;;;5036236;28;20168;-44
2021/12/09 05:53:02;;;;;;;6.07;5.13;;;;;;;;;;5028728;28;20918;-44
2021/12/09 05:55:29;;;;;;;6.65;5.90;;;;;;;;;;5025410;28;20180;-44
2021/12/09 05:57:55;;;;;;;6.85;5.93;;;;;;;;;;5021740;28;20188;-44
2021/12/09 06:00:21;;;;;;;7.10;5.90;;;;;;;;;;5035585;28;20259;-44
2021/12/09 06:02:47;;;;;;;5.78;5.18;;;;;;;;;;5024869;28;20654;-44
2021/12/09 06:05:13;;;;;;;6.45;5.72;;;;;;;;;;5015997;28;20195;-44
2021/12/09 06:07:39;;;;;;;7.20;6.40;;;;;;;;;;5021545;28;20198;-44
2021/12/09 06:10:05;;;;;;;8.15;6.18;;;;;;;;;;5035503;28;20416;-44
2021/12/09 06:12:33;;;;;;;9.20;6.07;;;;;;;;;;5035073;28;20176;-44
2021/12/09 06:14:59;;;;;;;7.57;5.80;;;;;;;;;;5035170;28;20172;-44
2021/12/09 06:17:25;;;;;;;7.20;6.07;;;;;;;;;;5021954;28;20185;-43
2021/12/09 06:19:51;;;;;;;7.53;5.65;;;;;;;;;;5017818;28;20189;-44
2021/12/09 06:22:17;;;;;;;7.40;6.10;;;;;;;;;;5025681;28;20218;-44
2021/12/09 06:24:45;;;;;;;7.22;5.95;;;;;;;;;;5033928;28;20211;-44
2021/12/09 06:27:11;;;;;;;8.20;6.00;;;;;;;;;;5034745;28;20211;-44
2021/12/09 06:29:38;;;;;;;6.70;5.78;;;;;;;;;;5032094;28;20169;-44
2021/12/09 06:32:04;;;;;;;6.65;5.78;;;;;;;;;;5029533;28;20203;-44
2021/12/09 06:34:30;;;;;;;7.45;6.40;;;;;;;;;;5029729;28;20168;-44
2021/12/09 06:36:56;;;;;;;5.88;5.28;;;;;;;;;;5021005;28;20650;-44
2021/12/09 06:39:22;;;;;;;7.22;5.90;;;;;;;;;;5030142;28;20192;-44
2021/12/09 06:41:49;;;;;;;7.25;5.70;;;;;;;;;;5030704;28;20194;-44
2021/12/09 06:44:14;;;;;;;6.15;5.50;;;;;;;;;;5031103;28;20227;-44
2021/12/09 06:46:40;;;;;;;7.03;5.47;;;;;;;;;;5024856;28;20258;-44
2021/12/09 06:49:07;;;;;;;8.05;6.13;;;;;;;;;;5015610;28;20188;-43
2021/12/09 06:51:33;;;;;;;8.82;5.63;;;;;;;;;;5015426;28;20169;-44
2021/12/09 06:53:59;;;;;;;7.18;5.72;;;;;;;;;;5043872;28;20491;-44
2021/12/09 06:56:27;;;;;;;7.93;6.18;;;;;;;;;;5035428;28;20183;-44
2021/12/09 06:58:53;;;;;;;8.00;5.93;;;;;;;;;;5032764;28;20183;-44
2021/12/09 07:01:19;;;;;;;9.05;6.18;;;;;;;;;;5034192;28;20587;-44
2021/12/09 07:03:45;;;;;;;9.52;6.13;;;;;;;;;;5024854;28;20183;-44
2021/12/09 07:06:12;;;;;;;8.95;6.00;;;;;;;;;;5034556;28;20302;-44
2021/12/09 07:08:45;;;;;;;9.32;6.03;;;;;;;;;;5020374;28;20305;-45
2021/12/09 07:11:11;;;;;;;10.57;6.47;;;;;;;;;;5027585;28;20179;-45
2021/12/09 07:13:37;;;;;;;8.60;5.97;;;;;;;;;;5032699;28;20184;-44
2021/12/09 07:16:04;;;;;;;10.60;6.35;;;;;;;;;;5034633;28;20183;-45
2021/12/09 07:18:30;;;;;;;10.82;6.28;;;;;;;;;;5032287;28;20176;-45
2021/12/09 07:20:57;;;;;;;12.10;6.80;;;;;;;;;;5014346;28;20267;-44
2021/12/09 07:23:23;;;;;;;11.48;6.82;;;;;;;;;;5028438;28;20176;-44
2021/12/09 07:25:49;;;;;;;12.27;6.82;;;;;;;;;;5029375;28;20227;-44
2021/12/09 07:28:15;;;;;;;12.93;7.35;;;;;;;;;;5020958;28;20301;-44
2021/12/09 07:30:42;;;;;;;10.07;7.50;;;;;;;;;;5030827;28;20191;-45
2021/12/09 07:33:08;;;;;;;14.80;7.85;;;;;;;;;;5017166;28;20315;-44
2021/12/09 07:35:34;;;;;;;13.18;7.70;;;;;;;;;;5013835;28;20191;-45
2021/12/09 07:38:01;;;;;;;14.52;7.68;;;;;;;;;;5020546;28;20782;-45
2021/12/09 07:40:28;;;;;;;12.75;7.28;;;;;;;;;;5028162;28;20187;-46
2021/12/09 07:42:54;;;;;;;10.88;6.95;;;;;;;;;;5033739;28;20579;-45
2021/12/09 07:45:20;;;;;;;14.65;8.35;;;;;;;;;;5022882;28;20185;-44
2021/12/09 07:47:47;;;;;;;13.70;8.75;;;;;;;;;;5014172;28;20192;-48
2021/12/09 07:50:16;;;;;;;16.05;10.23;;;;;;;;;;5014216;28;20272;-49
2021/12/09 07:52:44;;;;;;;26.25;13.02;;;;;;;;;;5014766;28;20607;-46
2021/12/09 07:55:11;;;;;;;23.92;13.48;;;;;;;;;;5021741;28;20226;-46
2021/12/09 07:57:38;;;;;;;24.48;14.23;;;;;;;;;;5028645;28;20188;-46
2021/12/09 08:00:06;;;;;;;25.10;14.32;;;;;;;;;;5030237;28;20214;-48
2021/12/09 08:02:32;;;;;;;27.33;15.73;;;;;;;;;;5033968;28;20214;-45
2021/12/09 08:04:58;;;;;;;26.23;15.98;;;;;;;;;;5034262;28;20203;-48
2021/12/09 08:07:24;;;;;;;27.90;16.67;;;;;;;;;;5052217;28;20211;-44
2021/12/09 08:09:51;;;;;;;32.30;16.20;;;;;;;;;;5014692;28;20176;-47
2021/12/09 08:12:17;;;;;;;29.63;18.48;;;;;;;;;;5022856;28;20497;-47
2021/12/09 08:14:43;;;;;;;29.70;18.17;;;;;;;;;;5033522;28;20602;-46
2021/12/09 08:17:33;;;;;;;39.22;19.65;;;;;;;;;;5031623;28;20571;-46
2021/12/09 08:19:55;;;;;;;35.42;20.05;;;;;;;;;;5021762;28;20224;-44
2021/12/09 08:22:22;;;;;;;35.58;20.92;;;;;;;;;;5026128;28;20192;-43
2021/12/09 08:24:48;;;;;;;34.97;20.80;;;;;;;;;;5033207;28;20180;-47
2021/12/09 08:27:14;;;;;;;34.35;20.48;;;;;;;;;;5024817;28;20204;-44
2021/12/09 08:29:40;;;;;;;38.28;20.50;;;;;;;;;;5015228;28;20456;-47
2021/12/09 08:32:07;;;;;;;31.85;20.73;;;;;;;;;;5017612;28;20183;-46
2021/12/09 08:34:33;;;;;;;36.90;20.15;;;;;;;;;;5023783;28;20226;-49
2021/12/09 08:36:59;;;;;;;35.90;20.13;;;;;;;;;;5028701;28;20548;-44
2021/12/09 08:39:25;;;;;;;33.78;18.75;;;;;;;;;;5031570;28;20191;-44
2021/12/09 08:41:51;;;;;;;32.97;18.95;;;;;;;;;;5028159;28;20700;-45
2021/12/09 08:44:17;;;;;;;30.42;19.05;;;;;;;;;;5027689;28;20190;-43
2021/12/09 08:46:42;;;;;;;35.17;20.55;;;;;;;;;;5032929;28;20219;-45
2021/12/09 08:49:09;;;;;;;33.28;18.83;;;;;;;;;;5033745;28;20176;-45
2021/12/09 08:51:35;;;;;;;28.88;17.70;;;;;;;;;;5032983;28;20210;-47
2021/12/09 08:54:01;;;;;;;27.90;18.85;;;;;;;;;;5021609;28;20215;-49
2021/12/09 08:56:27;;;;;;;31.15;19.33;;;;;;;;;;5017428;28;20183;-49
2021/12/09 08:58:53;;;;;;;31.42;19.27;;;;;;;;;;5020809;28;20179;-54
2021/12/09 09:01:19;;;;;;;75.93;33.58;;;;;;;;;;5033359;28;20475;-54
2021/12/09 09:03:45;;;;;;;59.25;28.13;;;;;;;;;;5023236;28;20466;-54
2021/12/09 09:06:11;;;;;;;52.42;25.38;;;;;;;;;;5012858;28;20174;-54
2021/12/09 09:08:37;;;;;;;46.92;24.73;;;;;;;;;;5012735;28;20274;-54
2021/12/09 09:11:04;;;;;;;45.33;23.42;;;;;;;;;;5032800;28;20172;-54
2021/12/09 09:13:31;;;;;;;43.33;21.38;;;;;;;;;;5032468;28;20528;-54
2021/12/09 09:15:57;;;;;;;35.78;20.85;;;;;;;;;;5032620;28;20594;-54
2021/12/09 09:18:23;;;;;;;37.15;22.05;;;;;;;;;;5032859;28;20267;-54
2021/12/09 09:20:49;;;;;;;34.00;20.63;;;;;;;;;;5033390;28;20576;-54
2021/12/09 09:23:16;;;;;;;28.75;17.92;;;;;;;;;;5033452;28;20187;-54
2021/12/09 09:25:43;;;;;;;31.33;18.90;;;;;;;;;;5036486;28;20176;-54
2021/12/09 09:28:09;;;;;;;36.45;18.67;;;;;;;;;;5025472;28;20195;-46
2021/12/09 09:30:38;;;;;;;35.28;19.08;;;;;;;;;;5026115;28;20287;-46
2021/12/09 09:33:06;;;;;;;133.73;68.65;;;;;;;;;;5037351;28;20160;-50
2021/12/09 09:39:21;;;;;;;425.83;269.42;;;;;;;;;;5133780;27;20291;-48
2021/12/09 09:44:54;;;;;;;741.72;483.48;;;;;;;;;;5079858;28;20272;-48
2021/12/09 09:47:20;;;;;;;641.72;423.35;;;;;;;;;;5092477;28;20185;-47
2021/12/09 09:49:46;;;;;;;432.10;245.95;;;;;;;;;;5077913;28;20307;-45
2021/12/09 09:52:12;;;;;;;247.05;131.93;;;;;;;;;;5100043;28;20521;-47
2021/12/09 09:54:39;;;;;;;425.75;241.45;;;;;;;;;;5074385;28;20574;-47
2021/12/09 09:57:06;;;;;;;396.75;215.68;;;;;;;;;;5088555;28;20202;-47
2021/12/09 09:59:32;;;;;;;354.15;193.50;;;;;;;;;;5095536;28;20182;-46
2021/12/09 10:01:58;;;;;;;365.95;200.00;;;;;;;;;;5103052;28;20178;-46
2021/12/09 10:07:01;;;;;;;301.40;157.25;;;;;;;;;;5100757;28;20180;-49
2021/12/09 10:09:27;;;;;;;253.45;133.75;;;;;;;;;;5101017;28;20192;-49
2021/12/09 10:11:55;;;;;;;243.52;127.30;;;;;;;;;;5070962;28;20190;-50
2021/12/09 10:14:26;;;;;;;226.02;119.95;;;;;;;;;;5071943;28;20752;-50
2021/12/09 10:17:04;;;;;;;202.15;108.38;;;;;;;;;;5094943;28;20528;-51
2021/12/09 10:19:30;;;;;;;204.57;108.40;;;;;;;;;;5107337;28;20173;-49
2021/12/09 10:22:22;;;;;;;184.27;97.22;;;;;;;;;;5097792;28;20169;-55
2021/12/09 10:24:49;;;;;;;173.93;91.22;;;;;;;;;;5084890;28;20185;-51
2021/12/09 10:27:24;;;;;;;171.35;88.85;;;;;;;;;;5086232;28;20190;-47
2021/12/09 10:29:55;;;;;;;167.88;88.22;;;;;;;;;;5099882;28;20222;-49
2021/12/09 10:32:25;;;;;;;142.95;76.75;;;;;;;;;;5089868;28;20204;-50
2021/12/09 10:34:52;;;;;;;139.63;73.68;;;;;;;;;;5087860;28;20184;-47
2021/12/09 10:37:22;;;;;;;145.23;76.05;;;;;;;;;;5098119;28;20544;-48
2021/12/09 10:39:56;;;;;;;141.32;72.38;;;;;;;;;;5114318;28;20407;-44
2021/12/09 10:42:28;;;;;;;134.18;69.68;;;;;;;;;;5113079;28;20191;-46
2021/12/09 10:44:56;;;;;;;133.00;68.70;;;;;;;;;;5117793;28;20211;-46
2021/12/09 10:50:10;;;;;;;124.28;66.68;;;;;;;;;;5095274;28;20223;-48
2021/12/09 10:52:41;;;;;;;119.78;60.72;;;;;;;;;;5086053;28;20556;-44
2021/12/09 10:55:19;;;;;;;116.35;58.95;;;;;;;;;;5075765;28;20189;-46
2021/12/09 10:57:52;;;;;;;116.82;56.42;;;;;;;;;;5086269;28;20197;-47
2021/12/09 11:00:20;;;;;;;117.75;56.85;;;;;;;;;;5096348;28;20223;-47
2021/12/09 11:02:56;;;;;;;111.38;57.95;;;;;;;;;;5084896;28;20488;-44
2021/12/09 11:05:22;;;;;;;148.40;74.88;;;;;;;;;;5084212;28;20181;-48
2021/12/09 11:07:48;;;;;;;208.27;104.97;;;;;;;;;;5082357;28;20264;-46
2021/12/09 11:10:19;;;;;;;228.05;113.22;;;;;;;;;;5093409;28;20613;-48
2021/12/09 11:12:49;;;;;;;246.45;119.60;;;;;;;;;;5079222;28;20181;-46
2021/12/09 11:15:17;;;;;;;266.15;127.30;;;;;;;;;;5091945;28;20190;-46
2021/12/09 11:17:46;;;;;;;258.85;128.70;;;;;;;;;;5085126;28;20202;-46
2021/12/09 11:20:14;;;;;;;256.27;122.80;;;;;;;;;;5080722;28;20183;-46
2021/12/09 11:22:43;;;;;;;239.38;118.53;;;;;;;;;;5086270;28;20213;-46
2021/12/09 11:25:33;;;;;;;209.07;107.60;;;;;;;;;;5080369;28;20265;-46
2021/12/09 11:28:09;;;;;;;220.55;106.90;;;;;;;;;;5084272;28;20181;-46
2021/12/09 11:30:59;;;;;;;204.43;99.05;;;;;;;;;;5088026;28;20205;-46
2021/12/09 11:33:34;;;;;;;202.73;99.97;;;;;;;;;;5080864;28;20216;-46
2021/12/09 11:36:02;;;;;;;186.85;90.57;;;;;;;;;;5081207;28;20178;-46
2021/12/09 11:38:54;;;;;;;179.70;88.47;;;;;;;;;;5084829;28;20532;-46
2021/12/09 11:41:30;;;;;;;179.50;85.15;;;;;;;;;;5083104;28;20214;-46
2021/12/09 11:43:57;;;;;;;163.13;81.28;;;;;;;;;;5084212;28;20326;-46
2021/12/09 11:46:23;;;;;;;158.15;79.72;;;;;;;;;;5082648;28;20171;-47
2021/12/09 11:48:49;;;;;;;151.20;77.47;;;;;;;;;;5074764;28;20178;-46
2021/12/09 11:51:15;;;;;;;145.80;75.22;;;;;;;;;;5079543;28;20185;-46
2021/12/09 11:53:44;;;;;;;143.70;72.93;;;;;;;;;;5080357;28;20178;-46
2021/12/09 11:56:25;;;;;;;148.65;72.28;;;;;;;;;;5076148;28;20179;-44
2021/12/09 11:59:23;;;;;;;142.38;68.68;;;;;;;;;;5088917;28;20206;-53
2021/12/09 12:07:54;;;;;;;164.05;81.20;;;;;;;;;;5089304;28;20457;-53
2021/12/09 12:13:36;;;;;;;151.60;74.90;;;;;;;;;;5078941;28;20249;-48
2021/12/09 12:16:22;;;;;;;158.32;79.00;;;;;;;;;;5091468;28;20177;-49
2021/12/09 12:18:59;;;;;;;144.05;73.95;;;;;;;;;;5086553;28;20292;-47
2021/12/09 12:21:47;;;;;;;147.35;71.60;;;;;;;;;;5097364;28;20551;-42
2021/12/09 12:29:58;;;;;;;137.70;65.22;;;;;;;;;;5098021;28;20218;-47
2021/12/09 12:40:11;;;;;;;107.05;55.50;;;;;;;;;;5098222;28;20573;-47
2021/12/09 12:42:47;;;;;;;106.80;54.00;;;;;;;;;;5089699;28;20212;-46
2021/12/09 12:45:35;;;;;;;112.95;54.88;;;;;;;;;;5100894;28;20435;-47
2021/12/09 12:48:29;;;;;;;105.20;52.25;;;;;;;;;;5077136;28;20201;-46
2021/12/09 12:51:20;;;;;;;94.30;49.92;;;;;;;;;;5099794;28;20178;-47
2021/12/09 12:53:48;;;;;;;102.22;50.25;;;;;;;;;;5060301;28;20221;-46
2021/12/09 12:56:14;;;;;;;88.20;47.13;;;;;;;;;;5074007;28;20471;-46
2021/12/09 12:58:58;;;;;;;88.28;46.50;;;;;;;;;;5073607;28;20208;-47
2021/12/09 13:01:24;;;;;;;90.55;43.45;;;;;;;;;;5093031;28;20187;-47
2021/12/09 13:03:55;;;;;;;82.53;43.85;;;;;;;;;;5093569;28;20173;-47
2021/12/09 13:06:39;;;;;;;78.53;42.72;;;;;;;;;;5085707;28;20248;-47
2021/12/09 13:09:51;;;;;;;72.63;40.90;;;;;;;;;;5073436;28;20181;-47
2021/12/09 13:12:12;;;;;;;78.93;41.58;;;;;;;;;;5073240;28;20297;-47
2021/12/09 13:15:01;;;;;;;80.10;42.33;;;;;;;;;;5073211;28;20189;-47
2021/12/09 13:17:45;;;;;;;95.80;47.42;;;;;;;;;;5081857;28;20486;-48
2021/12/09 13:20:28;;;;;;;95.22;49.70;;;;;;;;;;5091331;28;20169;-47
2021/12/09 13:23:19;;;;;;;99.63;49.97;;;;;;;;;;5073189;28;20201;-46
2021/12/09 13:26:07;;;;;;;101.25;51.08;;;;;;;;;;5072414;28;20162;-47
2021/12/09 13:28:39;;;;;;;92.25;48.75;;;;;;;;;;5073280;28;20257;-46
2021/12/09 13:31:21;;;;;;;110.50;54.00;;;;;;;;;;5086544;28;20181;-46
2021/12/09 13:34:06;;;;;;;142.30;62.53;;;;;;;;;;5091461;28;20173;-47
2021/12/09 13:36:48;;;;;;;186.82;86.43;;;;;;;;;;5089956;28;20225;-46
2021/12/09 13:49:51;;;;;;;118.80;58.60;;;;;;;;;;5093154;28;20204;-47
2021/12/09 13:55:24;;;;;;;96.10;48.53;;;;;;;;;;5093569;28;20173;-48
2021/12/09 13:57:59;;;;;;;95.13;47.38;;;;;;;;;;5093390;28;20196;-48
2021/12/09 14:00:25;;;;;;;88.65;45.67;;;;;;;;;;5092742;28;20169;-48
2021/12/09 14:02:56;;;;;;;82.85;42.88;;;;;;;;;;5093496;28;20185;-49
2021/12/09 14:05:23;;;;;;;83.97;43.10;;;;;;;;;;5092839;28;20202;-55
2021/12/09 14:08:02;;;;;;;72.15;40.47;;;;;;;;;;5098322;28;20307;-47
2021/12/09 14:10:32;;;;;;;74.25;38.60;;;;;;;;;;5104245;28;20173;-46
2021/12/09 14:13:05;;;;;;;69.43;36.42;;;;;;;;;;5055690;28;20260;-45
2021/12/09 14:16:24;;;;;;;60.25;34.58;;;;;;;;;;5072288;28;20569;-45
2021/12/09 14:18:25;;;;;;;63.20;32.08;;;;;;;;;;5069940;28;20214;-48
2021/12/09 14:20:51;;;;;;;59.92;33.53;;;;;;;;;;5073167;28;20167;-49
2021/12/09 14:23:17;;;;;;;53.47;30.35;;;;;;;;;;5073047;28;20534;-48
2021/12/09 14:25:44;;;;;;;58.22;31.95;;;;;;;;;;5075815;28;20679;-48
2021/12/09 14:28:14;;;;;;;54.70;29.85;;;;;;;;;;5076240;28;20171;-48
2021/12/09 14:30:41;;;;;;;57.35;29.70;;;;;;;;;;5082261;28;20177;-47
2021/12/09 14:33:09;;;;;;;51.58;29.05;;;;;;;;;;5107646;28;20177;-47
2021/12/09 14:35:44;;;;;;;55.25;28.33;;;;;;;;;;5082686;28;20186;-47
2021/12/09 14:38:12;;;;;;;48.08;27.23;;;;;;;;;;5090111;28;20201;-47
2021/12/09 14:40:42;;;;;;;49.38;28.30;;;;;;;;;;5078912;28;20178;-47
2021/12/09 14:43:11;;;;;;;48.65;24.77;;;;;;;;;;5082178;28;20195;-47
2021/12/09 14:45:39;;;;;;;50.65;25.67;;;;;;;;;;5105036;28;20174;-47
2021/12/09 14:48:09;;;;;;;41.15;24.23;;;;;;;;;;5103113;28;20181;-47
2021/12/09 14:50:44;;;;;;;43.28;23.90;;;;;;;;;;5109199;28;20234;-47
2021/12/09 14:53:10;;;;;;;40.78;23.08;;;;;;;;;;5075644;28;20204;-47
2021/12/09 14:55:41;;;;;;;37.30;22.70;;;;;;;;;;5109250;28;20184;-47
2021/12/09 14:58:08;;;;;;;39.30;20.98;;;;;;;;;;5095491;28;20189;-47
2021/12/09 15:00:38;;;;;;;43.78;23.38;;;;;;;;;;5080604;28;20458;-47
2021/12/09 15:03:05;;;;;;;37.15;20.65;;;;;;;;;;5095374;28;20190;-47
2021/12/09 15:05:33;;;;;;;37.22;20.77;;;;;;;;;;5082785;28;20515;-47
2021/12/09 15:08:06;;;;;;;37.28;20.35;;;;;;;;;;5075533;28;20756;-47
2021/12/09 15:10:33;;;;;;;34.92;20.50;;;;;;;;;;5074871;28;20170;-47
2021/12/09 15:13:00;;;;;;;33.58;19.17;;;;;;;;;;5075566;28;20171;-48
2021/12/09 15:15:28;;;;;;;33.63;19.30;;;;;;;;;;5075160;28;20450;-47
2021/12/09 15:17:56;;;;;;;32.10;18.92;;;;;;;;;;5095485;28;20213;-47
2021/12/09 15:20:29;;;;;;;33.33;18.85;;;;;;;;;;5095381;28;20162;-47
2021/12/09 15:23:14;;;;;;;31.45;18.67;;;;;;;;;;5075458;28;20427;-47
2021/12/09 15:25:48;;;;;;;32.60;18.13;;;;;;;;;;5074723;28;20170;-48